FTTA

Sarh Airport

Sarh, Chad
METAR FTTA 170800Z 18004KT CAVOK 28/18 Q1016
Observed Flight Rules
Nov-17 @ 08:00 UTC (56 minutes ago) Visual Flight Rules
Wind Visibility Clouds
180° at 4 knots 10,000+ meters
  • Clear skies
Temperatures Readings
Current 28°C / 82°F
Dewpoint 18°C / 64°F
Humidity 55%
Altimeter 30" Hg
Pressure 1016 hPa
Elevation 365
METAR FTTA 170800Z 18004KT CAVOK 28/18 Q1016
Observed Flight Rules
Nov-17 @ 08:00 UTC
(56 minutes ago)
VFR
Wind Visibility
180° at 4 knots 10,000+ meters
Clouds
  • Clear skies
Temperature Dewpoint
28°C / 82°F 18°C / 64°F
Humidity Altimeter Pressure
55% 30" Hg 1016 hPa